Time;durP1;ratioP1;P1;durP2;ratioP2;P2;SDS_P1;SDS_P2;PMS_P1;PMS_P2;Temp;Humidity;BMP_temperature;BMP_pressure;BME280_temperature;BME280_humidity;BME280_pressure;Samples;Min_cycle;Max_cycle;Signal;HPM_P1;HPM_P2
2022/03/28 00:02:16;;;;;;;5.60;2.00;;;;;;;5.48;100.00;102535.94;6284229;28;20048;-75
2022/03/28 00:05:18;;;;;;;8.10;2.63;;;;;;;5.45;100.00;102520.28;6272782;28;20049;-75
2022/03/28 00:08:19;;;;;;;10.43;2.75;;;;;;;5.45;100.00;102525.50;6272895;28;20045;-74
2022/03/28 00:11:21;;;;;;;8.15;2.53;;;;;;;5.42;100.00;102509.91;6271836;28;20416;-74
2022/03/28 00:14:24;;;;;;;11.95;3.13;;;;;;;5.35;100.00;102517.72;6272912;28;20056;-75
2022/03/28 00:17:26;;;;;;;10.70;2.90;;;;;;;5.30;100.00;102511.66;6272349;28;20057;-75
2022/03/28 00:20:27;;;;;;;12.23;2.97;;;;;;;5.29;100.00;102498.66;6271907;28;20068;-75
2022/03/28 00:23:30;;;;;;;7.60;2.42;;;;;;;5.25;100.00;102504.72;6280460;28;20056;-75
2022/03/28 00:26:32;;;;;;;12.93;2.83;;;;;;;5.18;100.00;102497.78;6272187;28;20443;-75
2022/03/28 00:29:34;;;;;;;8.68;3.25;;;;;;;5.14;100.00;102499.56;6272106;28;20052;-74
2022/03/28 00:32:36;;;;;;;11.57;3.28;;;;;;;5.14;100.00;102496.97;6271496;28;20052;-75
2022/03/28 00:35:37;;;;;;;10.88;2.10;;;;;;;5.12;100.00;102488.25;6272035;28;20068;-75
2022/03/28 00:38:39;;;;;;;16.05;3.40;;;;;;;5.06;100.00;102488.28;6272243;28;20053;-75
2022/03/28 00:41:40;;;;;;;7.07;2.10;;;;;;;5.05;100.00;102486.56;6271144;28;20060;-74
2022/03/28 00:44:43;;;;;;;15.82;3.33;;;;;;;5.01;100.00;102496.09;6271868;28;20060;-75
2022/03/28 00:47:44;;;;;;;7.47;3.05;;;;;;;4.92;100.00;102487.44;6272118;28;20519;-75
2022/03/28 00:50:45;;;;;;;7.05;4.20;;;;;;;4.78;100.00;102492.69;6271088;28;20052;-75
2022/03/28 00:53:48;;;;;;;11.45;3.88;;;;;;;4.71;100.00;102491.81;6271880;28;20060;-75
2022/03/28 00:56:50;;;;;;;12.90;4.07;;;;;;;4.70;100.00;102487.47;6271771;28;20078;-74
2022/03/28 00:59:53;;;;;;;14.52;3.13;;;;;;;4.53;100.00;102484.88;6271195;28;20476;-75
2022/03/28 01:02:56;;;;;;;11.00;4.68;;;;;;;4.47;100.00;102484.03;6271113;28;20397;-75
2022/03/28 01:05:58;;;;;;;9.98;4.22;;;;;;;4.32;100.00;102471.88;6271404;28;20053;-75
2022/03/28 01:08:59;;;;;;;6.93;3.75;;;;;;;4.33;100.00;102468.41;6271424;28;20048;-74
2022/03/28 01:12:01;;;;;;;12.00;3.42;;;;;;;4.22;100.00;102477.91;6270767;28;20049;-75
2022/03/28 01:15:04;;;;;;;8.15;3.63;;;;;;;4.24;100.00;102473.59;6271567;28;20492;-74
2022/03/28 01:18:11;;;;;;;6.35;2.85;;;;;;;3.99;100.00;102464.88;6263347;28;20048;-74
2022/03/28 01:21:14;;;;;;;8.60;3.83;;;;;;;3.91;100.00;102462.28;6278536;28;20094;-74
2022/03/28 01:24:15;;;;;;;6.65;3.30;;;;;;;3.89;100.00;102461.41;6271877;28;20041;-74
2022/03/28 01:27:17;;;;;;;9.70;3.83;;;;;;;3.79;100.00;102470.06;6279214;28;20055;-74
2022/03/28 01:30:18;;;;;;;10.38;3.65;;;;;;;3.84;100.00;102472.66;6286930;28;20408;-74
2022/03/28 01:33:20;;;;;;;6.82;3.03;;;;;;;3.74;100.00;102458.78;6296309;28;20044;-74
2022/03/28 01:36:25;;;;;;;7.65;3.30;;;;;;;3.80;100.00;102451.00;6296177;28;20045;-75
2022/03/28 01:39:27;;;;;;;7.25;2.95;;;;;;;3.70;100.00;102444.91;6296009;28;20432;-74
2022/03/28 01:42:28;;;;;;;5.82;3.45;;;;;;;3.72;100.00;102430.16;6295719;28;20515;-75
2022/03/28 01:45:30;;;;;;;4.72;2.75;;;;;;;3.79;100.00;102423.25;6296177;28;20049;-75
2022/03/28 01:48:32;;;;;;;7.60;3.60;;;;;;;3.79;100.00;102421.53;6295923;28;20052;-74
2022/03/28 01:51:34;;;;;;;6.43;3.38;;;;;;;3.76;100.00;102423.25;6295095;28;20442;-75
2022/03/28 01:54:36;;;;;;;4.90;3.00;;;;;;;3.80;100.00;102422.38;6296032;28;20048;-74
2022/03/28 01:57:38;;;;;;;8.60;4.15;;;;;;;3.72;100.00;102424.97;6295684;28;20057;-74
2022/03/28 02:00:40;;;;;;;8.60;4.35;;;;;;;3.80;100.00;102412.84;6295276;28;20044;-74
2022/03/28 02:03:41;;;;;;;6.05;3.00;;;;;;;3.81;100.00;102405.91;6295611;28;20048;-74
2022/03/28 02:06:43;;;;;;;6.75;3.17;;;;;;;3.70;100.00;102400.69;6296002;28;20056;-75
2022/03/28 02:09:45;;;;;;;9.60;3.00;;;;;;;3.70;100.00;102395.50;6295283;28;20045;-74
2022/03/28 02:12:47;;;;;;;8.63;3.65;;;;;;;3.70;100.00;102398.09;6295217;28;20045;-75
2022/03/28 02:15:49;;;;;;;7.95;3.13;;;;;;;3.75;100.00;102398.09;6295704;28;20052;-74
2022/03/28 02:18:50;;;;;;;4.53;2.05;;;;;;;3.70;100.00;102386.84;6296507;28;20052;-74
2022/03/28 02:21:53;;;;;;;6.00;2.80;;;;;;;3.68;100.00;102386.84;6299367;28;20099;-74
2022/03/28 02:24:54;;;;;;;7.47;3.05;;;;;;;3.73;100.00;102390.31;6300176;28;20519;-74
2022/03/28 02:27:56;;;;;;;5.50;2.53;;;;;;;3.80;100.00;102384.25;6300218;28;20135;-74
2022/03/28 02:30:57;;;;;;;10.60;3.33;;;;;;;3.83;100.00;102379.94;6298942;28;20052;-74
2022/03/28 02:33:59;;;;;;;8.70;3.65;;;;;;;3.89;100.00;102378.19;6299993;28;20044;-74
2022/03/28 02:37:01;;;;;;;4.53;2.08;;;;;;;3.73;100.00;102381.66;6299545;28;20067;-74
2022/03/28 02:40:03;;;;;;;5.97;2.53;;;;;;;3.76;100.00;102376.44;6299660;28;20055;-74
2022/03/28 02:43:05;;;;;;;9.95;3.63;;;;;;;3.83;100.00;102377.31;6299252;28;20056;-74
2022/03/28 02:46:07;;;;;;;6.60;3.05;;;;;;;3.89;100.00;102366.91;6299490;28;20170;-74
2022/03/28 02:49:09;;;;;;;7.93;3.30;;;;;;;3.81;100.00;102357.41;6299478;28;20135;-75
2022/03/28 02:52:12;;;;;;;6.18;2.63;;;;;;;3.85;100.00;102357.38;6298449;28;20045;-74
2022/03/28 02:55:14;;;;;;;7.85;3.58;;;;;;;3.94;100.00;102347.84;6299496;28;20052;-74
2022/03/28 02:58:16;;;;;;;5.13;2.45;;;;;;;4.01;100.00;102356.53;6298758;28;20053;-75
2022/03/28 03:01:17;;;;;;;6.30;3.30;;;;;;;4.05;100.00;102359.13;6298681;28;20040;-75
2022/03/28 03:04:18;;;;;;;5.35;2.92;;;;;;;4.12;100.00;102348.69;6299051;28;20056;-74
2022/03/28 03:07:21;;;;;;;12.35;4.22;;;;;;;4.10;100.00;102348.72;6299194;28;20052;-75
2022/03/28 03:10:22;;;;;;;11.90;4.03;;;;;;;4.05;100.00;102348.72;6298366;28;20047;-74
2022/03/28 03:13:24;;;;;;;7.63;2.67;;;;;;;4.02;100.00;102353.06;6299148;28;20049;-74
2022/03/28 03:16:25;;;;;;;6.45;3.25;;;;;;;4.01;100.00;102346.97;6298966;28;20057;-74
2022/03/28 03:19:27;;;;;;;7.10;2.30;;;;;;;4.00;100.00;102347.88;6273151;28;20118;-74
2022/03/28 03:22:29;;;;;;;9.82;3.42;;;;;;;3.94;100.00;102341.78;6284268;28;20054;-74
2022/03/28 03:25:30;;;;;;;5.45;2.45;;;;;;;3.82;100.00;102347.88;6292174;28;20052;-74
2022/03/28 03:28:32;;;;;;;6.15;2.45;;;;;;;3.79;100.00;102356.50;6273155;28;20474;-74
2022/03/28 03:31:33;;;;;;;7.25;2.70;;;;;;;3.78;100.00;102346.13;6270419;28;20416;-74
2022/03/28 03:34:35;;;;;;;9.73;2.72;;;;;;;3.84;100.00;102345.25;6279496;28;20049;-74
2022/03/28 03:37:38;;;;;;;12.25;3.45;;;;;;;3.90;100.00;102345.25;6272692;28;20044;-74
2022/03/28 03:40:39;;;;;;;10.38;2.65;;;;;;;3.92;100.00;102348.72;6272786;28;20056;-74
2022/03/28 03:43:41;;;;;;;7.40;3.85;;;;;;;4.02;100.00;102346.09;6272618;28;20053;-75
2022/03/28 03:46:42;;;;;;;7.43;3.10;;;;;;;4.06;100.00;102354.78;6272893;28;20563;-75
2022/03/28 03:49:44;;;;;;;5.00;2.33;;;;;;;3.92;100.00;102347.00;6272399;28;20045;-74
2022/03/28 03:52:47;;;;;;;3.28;1.65;;;;;;;3.77;100.00;102358.25;6274551;28;20052;-74
2022/03/28 03:55:49;;;;;;;6.55;2.00;;;;;;;3.63;100.00;102346.09;6274028;28;20558;-74
2022/03/28 03:58:50;;;;;;;6.22;1.90;;;;;;;3.66;100.00;102346.97;6272824;28;20060;-74
2022/03/28 04:01:52;;;;;;;2.50;1.38;;;;;;;3.73;100.00;102342.66;6272450;28;20045;-74
2022/03/28 04:04:53;;;;;;;4.45;2.08;;;;;;;3.64;100.00;102340.91;6272805;28;20049;-74
2022/03/28 04:07:56;;;;;;;4.45;2.40;;;;;;;3.67;100.00;102340.91;6272885;28;20049;-74
2022/03/28 04:10:58;;;;;;;4.85;1.73;;;;;;;3.77;100.00;102334.84;6272019;28;20048;-74
2022/03/28 04:13:59;;;;;;;5.18;1.73;;;;;;;3.85;100.00;102331.38;6272756;28;20048;-74
2022/03/28 04:17:00;;;;;;;1.63;1.02;;;;;;;3.92;100.00;102326.19;6272396;28;20056;-74
2022/03/28 04:20:02;;;;;;;1.55;0.82;;;;;;;3.79;100.00;102325.31;6272382;28;20420;-74
2022/03/28 04:23:05;;;;;;;5.05;1.90;;;;;;;3.81;100.00;102327.91;6272311;28;20045;-74
2022/03/28 04:26:06;;;;;;;3.33;1.20;;;;;;;3.93;100.00;102314.91;6272258;28;20055;-74
2022/03/28 04:29:07;;;;;;;5.57;1.75;;;;;;;4.02;100.00;102312.28;6272342;28;20055;-74
2022/03/28 04:32:10;;;;;;;7.15;2.10;;;;;;;4.04;100.00;102304.47;6271460;28;20222;-74
2022/03/28 04:35:14;;;;;;;4.88;2.20;;;;;;;4.05;100.00;102306.25;6272346;28;20052;-74
2022/03/28 04:38:17;;;;;;;6.82;2.33;;;;;;;4.00;100.00;102302.78;6272018;28;20424;-74
2022/03/28 04:41:18;;;;;;;10.15;4.10;;;;;;;3.97;100.00;102303.63;6270948;28;20044;-74
2022/03/28 04:44:19;;;;;;;4.80;1.95;;;;;;;3.95;100.00;102294.09;6271926;28;20053;-74
2022/03/28 04:47:21;;;;;;;22.23;2.78;;;;;;;4.00;100.00;102293.25;6272065;28;20053;-74
2022/03/28 04:50:22;;;;;;;9.75;2.40;;;;;;;4.06;100.00;102297.56;6271170;28;20416;-74
2022/03/28 04:53:25;;;;;;;9.43;2.72;;;;;;;4.16;100.00;102280.19;6272144;28;20060;-74
2022/03/28 04:56:26;;;;;;;11.93;4.32;;;;;;;4.04;100.00;102288.88;6271960;28;20049;-74
2022/03/28 04:59:28;;;;;;;8.82;2.95;;;;;;;4.02;100.00;102283.69;6271655;28;20080;-76
2022/03/28 05:02:29;;;;;;;7.53;2.70;;;;;;;4.07;100.00;102278.47;6271241;28;20090;-75
2022/03/28 05:05:31;;;;;;;16.60;3.72;;;;;;;4.19;100.00;102280.19;6271494;28;20049;-74
2022/03/28 05:08:33;;;;;;;10.55;2.47;;;;;;;4.15;100.00;102284.53;6271796;28;20435;-74
2022/03/28 05:11:35;;;;;;;10.90;2.35;;;;;;;4.06;100.00;102280.22;6270727;28;20051;-75
2022/03/28 05:14:36;;;;;;;6.35;2.25;;;;;;;3.98;100.00;102284.56;6271723;28;20052;-74
2022/03/28 05:17:37;;;;;;;11.25;2.97;;;;;;;3.89;100.00;102283.69;6272363;28;20432;-74
2022/03/28 05:20:39;;;;;;;13.02;2.55;;;;;;;3.90;100.00;102285.44;6284543;28;20542;-74
2022/03/28 05:23:41;;;;;;;9.00;2.30;;;;;;;3.87;100.00;102280.25;6282294;28;20049;-74
2022/03/28 05:26:43;;;;;;;9.85;3.45;;;;;;;3.88;100.00;102269.84;6296484;28;20060;-74
2022/03/28 05:29:45;;;;;;;11.45;3.17;;;;;;;3.99;100.00;102265.47;6293064;28;20048;-74
2022/03/28 05:32:46;;;;;;;15.07;4.32;;;;;;;4.14;100.00;102271.53;6278854;28;20041;-74
2022/03/28 05:35:47;;;;;;;9.27;2.80;;;;;;;4.12;100.00;102268.06;6271402;28;20048;-74
2022/03/28 05:38:50;;;;;;;14.43;3.28;;;;;;;4.01;100.00;102271.56;6271094;28;20052;-74
2022/03/28 05:41:52;;;;;;;8.07;2.20;;;;;;;4.04;100.00;102268.97;6270305;28;20052;-74
2022/03/28 05:44:53;;;;;;;7.35;2.55;;;;;;;4.04;100.00;102268.97;6279512;28;20056;-75
2022/03/28 05:47:54;;;;;;;5.07;1.95;;;;;;;3.96;100.00;102264.63;6270973;28;20068;-75
2022/03/28 05:50:56;;;;;;;5.30;2.50;;;;;;;4.00;100.00;102248.16;6270424;28;20044;-74
2022/03/28 05:53:59;;;;;;;11.02;2.67;;;;;;;4.11;100.00;102253.31;6272509;28;20044;-74
2022/03/28 05:57:00;;;;;;;6.57;2.58;;;;;;;4.02;100.00;102249.00;6274250;28;20053;-74
2022/03/28 06:00:04;;;;;;;7.35;2.72;;;;;;;4.06;100.00;102249.00;6287224;28;20389;-75
2022/03/28 06:03:08;;;;;;;6.72;3.00;;;;;;;4.15;100.00;102258.50;6287272;28;20052;-74
2022/03/28 06:06:09;;;;;;;12.10;2.70;;;;;;;4.17;100.00;102255.91;6275943;28;20115;-75
2022/03/28 06:09:12;;;;;;;15.13;3.28;;;;;;;4.17;100.00;102250.69;6283616;28;20398;-74
2022/03/28 06:12:15;;;;;;;14.20;3.50;;;;;;;4.21;100.00;102250.69;6271123;28;20052;-75
2022/03/28 06:15:18;;;;;;;11.07;2.95;;;;;;;4.29;100.00;102248.06;6275392;28;20049;-75
2022/03/28 06:18:19;;;;;;;7.55;2.53;;;;;;;4.38;100.00;102252.38;6250509;28;20060;-75
2022/03/28 06:21:21;;;;;;;4.80;1.40;;;;;;;4.31;100.00;102248.91;6264654;28;20128;-74
2022/03/28 06:24:23;;;;;;;6.40;2.05;;;;;;;4.27;100.00;102242.00;6282723;28;20040;-75
2022/03/28 06:27:25;;;;;;;5.20;1.55;;;;;;;4.33;100.00;102236.78;6282936;28;20407;-75
2022/03/28 06:30:26;;;;;;;3.58;1.35;;;;;;;4.40;100.00;102245.41;6280276;28;20052;-76
2022/03/28 06:33:28;;;;;;;9.27;2.13;;;;;;;4.47;100.00;102232.38;6252574;28;20045;-75
2022/03/28 06:36:30;;;;;;;9.80;2.67;;;;;;;4.53;100.00;102226.28;6250250;28;20053;-75
2022/03/28 06:39:34;;;;;;;9.95;2.95;;;;;;;4.44;100.00;102227.19;6250120;28;20127;-75
2022/03/28 06:42:35;;;;;;;9.00;3.17;;;;;;;4.32;100.00;102222.91;6262148;28;20053;-75
2022/03/28 06:45:37;;;;;;;13.90;3.72;;;;;;;4.41;100.00;102231.56;6270346;28;20053;-75
2022/03/28 06:48:38;;;;;;;10.38;4.07;;;;;;;4.51;100.00;102230.63;6273097;28;20171;-75
2022/03/28 06:51:40;;;;;;;16.13;3.40;;;;;;;4.62;100.00;102238.38;6272075;28;20045;-74
2022/03/28 06:54:42;;;;;;;18.33;3.75;;;;;;;4.59;100.00;102239.28;6272858;28;20045;-75
2022/03/28 06:57:44;;;;;;;10.95;2.58;;;;;;;4.66;100.00;102243.56;6272731;28;20131;-75
2022/03/28 07:00:45;;;;;;;8.50;3.10;;;;;;;4.52;100.00;102242.78;6272242;28;20041;-75
2022/03/28 07:03:47;;;;;;;11.93;2.95;;;;;;;4.54;100.00;102233.22;6272541;28;20060;-75
2022/03/28 07:06:48;;;;;;;11.02;3.83;;;;;;;4.67;100.00;102234.88;6273833;28;20606;-75
2022/03/28 07:09:51;;;;;;;12.57;3.50;;;;;;;4.74;100.00;102223.56;6273631;28;20056;-75
2022/03/28 07:12:54;;;;;;;11.38;3.30;;;;;;;4.66;100.00;102221.88;6273924;28;20045;-75
2022/03/28 07:15:55;;;;;;;8.57;3.05;;;;;;;4.67;100.00;102218.41;6273998;28;20697;-76
2022/03/28 07:18:57;;;;;;;13.30;2.83;;;;;;;4.70;100.00;102214.03;6273812;28;20045;-75
2022/03/28 07:21:58;;;;;;;15.63;3.50;;;;;;;4.80;100.00;102209.66;6273294;28;20492;-75
2022/03/28 07:25:01;;;;;;;11.63;4.15;;;;;;;4.88;100.00;102209.63;6273915;28;20055;-75
2022/03/28 07:28:08;;;;;;;8.00;3.65;;;;;;;4.90;100.00;102203.50;6273469;28;20095;-75
2022/03/28 07:31:10;;;;;;;19.55;5.03;;;;;;;4.91;100.00;102201.78;6268386;28;20132;-78
2022/03/28 07:37:30;;;;;;;10.73;4.97;;;;;;;4.90;100.00;102200.91;6276000;28;20416;-77
2022/03/28 07:40:33;;;;;;;16.98;5.05;;;;;;;4.90;100.00;102193.09;6281904;28;20054;-77
2022/03/28 07:43:34;;;;;;;15.63;5.10;;;;;;;5.01;100.00;102196.50;6284519;28;20072;-76
2022/03/28 07:46:35;;;;;;;17.80;4.20;;;;;;;5.08;100.00;102192.09;6289376;28;20048;-76
2022/03/28 07:49:38;;;;;;;16.33;4.93;;;;;;;5.13;100.00;102195.53;6291520;28;20051;-75
2022/03/28 07:52:40;;;;;;;18.88;4.80;;;;;;;5.16;100.00;102192.91;6297502;28;20044;-76
2022/03/28 07:55:43;;;;;;;24.05;4.72;;;;;;;5.24;100.00;102190.25;6284810;28;20049;-76
2022/03/28 07:58:45;;;;;;;15.43;5.57;;;;;;;5.22;100.00;102189.38;6297796;28;20049;-76
2022/03/28 08:01:46;;;;;;;22.50;5.68;;;;;;;5.29;100.00;102196.28;6297040;28;20055;-75
2022/03/28 08:04:48;;;;;;;15.55;5.45;;;;;;;5.31;100.00;102199.72;6292569;28;20045;-76
2022/03/28 08:07:49;;;;;;;18.65;4.68;;;;;;;5.29;100.00;102197.16;6272683;28;20452;-76
2022/03/28 08:10:52;;;;;;;21.13;5.75;;;;;;;5.22;100.00;102197.19;6271853;28;20665;-76
2022/03/28 08:13:55;;;;;;;14.77;5.15;;;;;;;5.11;100.00;102194.69;6280933;28;20056;-77
2022/03/28 08:16:57;;;;;;;16.60;5.03;;;;;;;5.08;100.00;102189.50;6271575;28;20045;-76
2022/03/28 08:19:58;;;;;;;12.27;5.38;;;;;;;4.97;100.00;102181.75;6272132;28;20423;-77
2022/03/28 08:23:00;;;;;;;17.33;5.40;;;;;;;5.02;100.00;102173.91;6272021;28;20463;-76
2022/03/28 08:26:04;;;;;;;18.00;5.85;;;;;;;5.17;100.00;102176.38;6272166;28;20080;-76
2022/03/28 08:29:05;;;;;;;16.17;4.88;;;;;;;5.23;100.00;102170.28;6272674;28;20060;-76
2022/03/28 08:32:08;;;;;;;15.63;4.85;;;;;;;5.25;100.00;102165.91;6271570;28;20175;-77
2022/03/28 08:35:11;;;;;;;20.50;6.55;;;;;;;5.10;100.00;102153.88;6272399;28;20194;-76
2022/03/28 08:38:13;;;;;;;16.27;4.80;;;;;;;5.25;100.00;102156.34;6272166;28;20056;-77
2022/03/28 08:41:18;;;;;;;16.90;5.32;;;;;;;5.42;100.00;102155.34;6271433;28;20060;-76
2022/03/28 08:44:20;;;;;;;16.98;5.10;;;;;;;5.43;100.00;102159.66;6272206;28;20048;-77
2022/03/28 08:47:23;;;;;;;20.52;5.30;;;;;;;5.51;100.00;102144.81;6272166;28;20048;-76
2022/03/28 08:50:26;;;;;;;19.67;6.00;;;;;;;5.43;100.00;102142.28;6271533;28;20056;-77
2022/03/28 08:53:27;;;;;;;20.27;4.88;;;;;;;5.50;100.00;102140.50;6271868;28;20472;-76
2022/03/28 08:56:30;;;;;;;18.45;5.03;;;;;;;5.59;100.00;102138.66;6271672;28;20056;-76
2022/03/28 08:59:31;;;;;;;15.27;5.68;;;;;;;5.62;100.00;102140.34;6271873;28;20511;-76
2022/03/28 09:02:41;;;;;;;16.52;6.35;;;;;;;5.58;100.00;102129.09;6271204;28;20052;-76
2022/03/28 09:05:47;;;;;;;11.18;4.68;;;;;;;5.66;100.00;102136.84;6271388;28;20045;-76
2022/03/28 09:08:48;;;;;;;20.85;5.60;;;;;;;5.74;100.00;102141.97;6269971;28;20492;-76
2022/03/28 09:11:52;;;;;;;18.52;6.18;;;;;;;5.64;100.00;102138.63;6246144;28;20493;-76
2022/03/28 09:14:57;;;;;;;25.02;7.65;;;;;;;5.59;100.00;102136.06;6246781;28;20520;-75
2022/03/28 09:17:59;;;;;;;21.75;6.38;;;;;;;5.57;100.00;102145.63;6246771;28;20128;-76
2022/03/28 09:21:02;;;;;;;30.85;5.78;;;;;;;5.69;100.00;102136.81;6245821;28;20053;-76
2022/03/28 09:24:08;;;;;;;24.08;8.00;;;;;;;5.72;100.00;102133.28;6246863;28;20056;-76
2022/03/28 09:27:12;;;;;;;21.80;6.93;;;;;;;5.69;100.00;102125.53;6246927;28;20049;-76
2022/03/28 09:30:16;;;;;;;18.85;6.10;;;;;;;5.85;100.00;102129.66;6251555;28;20139;-76
2022/03/28 09:33:18;;;;;;;20.77;5.18;;;;;;;5.76;100.00;102133.25;6251609;28;20052;-76
2022/03/28 09:36:34;;;;;;;20.58;6.85;;;;;;;5.87;100.00;102122.69;6251763;28;20060;-76
2022/03/28 09:39:35;;;;;;;17.50;6.13;;;;;;;6.00;100.00;102131.28;6263365;28;20048;-76
2022/03/28 09:42:48;;;;;;;21.77;6.57;;;;;;;5.90;100.00;102127.00;6287719;28;20044;-76
2022/03/28 09:45:52;;;;;;;22.15;7.47;;;;;;;5.83;100.00;102128.84;6276323;28;20093;-75
2022/03/28 09:48:54;;;;;;;29.00;7.47;;;;;;;5.70;100.00;102128.09;6283905;28;20045;-76
2022/03/28 09:52:03;;;;;;;24.60;7.28;;;;;;;5.75;100.00;102109.78;6280011;28;20128;-77
2022/03/28 09:55:07;;;;;;;20.75;7.38;;;;;;;5.79;100.00;102114.09;6292053;28;20049;-76
2022/03/28 09:58:10;;;;;;;25.95;9.50;;;;;;;5.79;100.00;102114.09;6300732;28;20052;-76
2022/03/28 10:01:18;;;;;;;21.33;8.02;;;;;;;5.79;100.00;102122.78;6299622;28;20056;-76
2022/03/28 10:04:20;;;;;;;19.15;7.30;;;;;;;5.86;100.00;102123.59;6300494;28;20048;-77
2022/03/28 10:07:22;;;;;;;21.20;8.57;;;;;;;5.84;100.00;102115.75;6294183;28;20056;-76
2022/03/28 10:10:24;;;;;;;21.38;7.43;;;;;;;5.83;100.00;102101.00;6274844;28;20049;-76
2022/03/28 10:13:29;;;;;;;26.30;8.15;;;;;;;5.84;100.00;102109.69;6275307;28;20489;-77
2022/03/28 10:16:31;;;;;;;30.52;7.35;;;;;;;5.97;100.00;102102.63;6275385;28;20057;-76
2022/03/28 10:19:33;;;;;;;20.38;7.85;;;;;;;6.06;100.00;102103.34;6274960;28;20052;-76
2022/03/28 10:22:37;;;;;;;21.55;8.63;;;;;;;6.02;100.00;102104.28;6274540;28;20052;-76
2022/03/28 10:25:40;;;;;;;27.42;8.43;;;;;;;5.98;100.00;102097.38;6285410;28;20049;-77
2022/03/28 10:28:59;;;;;;;26.90;8.13;;;;;;;6.10;100.00;102093.75;6295505;28;20462;-76
2022/03/28 10:32:02;;;;;;;34.42;8.60;;;;;;;6.37;100.00;102091.66;6274127;28;20045;-76
2022/03/28 10:35:06;;;;;;;27.75;9.73;;;;;;;6.43;100.00;102088.94;6275193;28;20052;-76
2022/03/28 10:38:15;;;;;;;24.48;9.60;;;;;;;6.44;100.00;102083.69;6274891;28;20056;-75
2022/03/28 10:41:17;;;;;;;30.58;10.40;;;;;;;6.30;100.00;102081.28;6297754;28;20124;-77
2022/03/28 10:44:20;;;;;;;23.42;10.05;;;;;;;6.23;100.00;102082.25;6299088;28;20052;-76
2022/03/28 10:47:40;;;;;;;29.25;10.20;;;;;;;6.26;100.00;102076.97;6299816;28;20519;-77
2022/03/28 10:50:48;;;;;;;27.85;10.70;;;;;;;6.27;100.00;102075.25;6298895;28;20556;-77
2022/03/28 10:53:54;;;;;;;34.38;11.88;;;;;;;6.31;100.00;102074.31;6299445;28;20048;-77
2022/03/28 10:56:57;;;;;;;32.17;12.38;;;;;;;6.46;100.00;102068.88;6299364;28;20048;-76
2022/03/28 11:00:08;;;;;;;36.55;12.45;;;;;;;6.55;100.00;102058.28;6299099;28;20574;-76
2022/03/28 11:03:10;;;;;;;34.00;12.75;;;;;;;6.65;100.00;102069.44;6298997;28;20049;-76
2022/03/28 11:06:12;;;;;;;29.02;10.98;;;;;;;6.53;100.00;102057.44;6299249;28;20055;-77
2022/03/28 11:09:14;;;;;;;40.17;12.55;;;;;;;6.41;100.00;102056.78;6299131;28;20051;-76
2022/03/28 11:12:18;;;;;;;35.58;12.45;;;;;;;6.44;100.00;102054.97;6299114;28;20044;-74
2022/03/28 11:15:22;;;;;;;42.30;14.05;;;;;;;6.30;100.00;102047.34;6298956;28;20408;-76
2022/03/28 11:18:28;;;;;;;35.08;11.90;;;;;;;6.33;100.00;102038.59;6277184;28;20076;-76
2022/03/28 11:21:30;;;;;;;40.05;13.88;;;;;;;6.57;100.00;102053.03;6273339;28;20060;-76
2022/03/28 11:24:51;;;;;;;34.63;10.57;;;;;;;6.56;100.00;102046.94;6273909;28;20393;-75
2022/03/28 11:28:02;;;;;;;24.25;9.88;;;;;;;6.53;100.00;102046.97;6273611;28;20436;-76
2022/03/28 11:31:08;;;;;;;37.45;11.40;;;;;;;6.51;100.00;102048.78;6273409;28;20504;-75
2022/03/28 11:34:10;;;;;;;30.98;11.00;;;;;;;6.37;100.00;102047.25;6273392;28;20151;-75
2022/03/28 11:37:15;;;;;;;33.83;13.15;;;;;;;6.52;100.00;102032.22;6273351;28;20071;-75
2022/03/28 11:40:17;;;;;;;36.90;11.80;;;;;;;6.74;100.00;102022.28;6280760;28;20037;-76
2022/03/28 11:43:27;;;;;;;26.33;9.90;;;;;;;6.71;100.00;102011.00;6292476;28;20045;-76
2022/03/28 11:46:32;;;;;;;31.30;9.95;;;;;;;6.77;100.00;102003.94;6284090;28;20044;-76
2022/03/28 11:49:34;;;;;;;28.73;9.68;;;;;;;7.00;100.00;101993.09;6294042;28;20052;-76
2022/03/28 11:52:36;;;;;;;30.00;8.98;;;;;;;7.19;100.00;101990.97;6272524;28;20049;-77
2022/03/28 11:55:38;;;;;;;26.90;9.15;;;;;;;6.85;100.00;101988.13;6272950;28;20519;-76
2022/03/28 11:58:39;;;;;;;22.33;9.65;;;;;;;7.07;100.00;101970.28;6279782;28;20049;-76
2022/03/28 12:01:43;;;;;;;21.20;8.80;;;;;;;7.05;100.00;101970.34;6284821;28;20740;-76
2022/03/28 12:04:45;;;;;;;26.70;9.52;;;;;;;6.81;100.00;101958.59;6272788;28;20045;-76
2022/03/28 12:07:46;;;;;;;19.98;8.70;;;;;;;6.78;100.00;101970.84;6277627;28;20048;-76
2022/03/28 12:10:50;;;;;;;21.13;8.15;;;;;;;7.47;100.00;101972.97;6276636;28;20076;-77
2022/03/28 12:13:52;;;;;;;23.15;8.52;;;;;;;7.35;100.00;101962.75;6272763;28;20182;-76
2022/03/28 12:16:56;;;;;;;19.00;7.65;;;;;;;7.60;100.00;101952.66;6272661;28;20142;-75
2022/03/28 12:20:04;;;;;;;22.13;7.72;;;;;;;7.96;100.00;101942.28;6277439;28;20079;-76
2022/03/28 12:23:06;;;;;;;25.33;8.82;;;;;;;8.41;100.00;101935.09;6288507;28;20044;-76
2022/03/28 12:26:09;;;;;;;57.35;14.00;;;;;;;8.70;100.00;101926.47;6297290;28;20049;-76
2022/03/28 12:29:12;;;;;;;81.63;24.08;;;;;;;9.03;100.00;101921.19;6296891;28;20049;-76
2022/03/28 12:32:16;;;;;;;21.65;8.20;;;;;;;8.98;100.00;101925.72;6286250;28;20041;-76
2022/03/28 12:35:21;;;;;;;21.27;8.95;;;;;;;9.00;100.00;101924.78;6267656;28;20131;-77
2022/03/28 12:38:25;;;;;;;21.90;8.50;;;;;;;8.61;100.00;101917.09;6271040;28;20052;-76
2022/03/28 12:41:27;;;;;;;22.77;8.70;;;;;;;8.29;100.00;101920.50;6271369;28;20681;-76
2022/03/28 12:44:29;;;;;;;18.35;8.20;;;;;;;8.21;100.00;101917.22;6269050;28;20045;-76
2022/03/28 12:47:31;;;;;;;20.75;8.63;;;;;;;8.19;100.00;101911.16;6283594;28;20053;-76
2022/03/28 12:50:34;;;;;;;21.90;9.60;;;;;;;8.70;100.00;101905.50;6287875;28;20055;-76
2022/03/28 12:53:37;;;;;;;27.13;11.48;;;;;;;9.41;100.00;101901.75;6296674;28;20492;-76
2022/03/28 12:56:46;;;;;;;24.65;10.73;;;;;;;9.87;100.00;101900.31;6297025;28;20052;-77
2022/03/28 12:59:53;;;;;;;20.65;9.88;;;;;;;9.79;100.00;101890.06;6295992;28;20048;-76
2022/03/28 13:03:01;;;;;;;21.40;10.02;;;;;;;9.93;100.00;101876.50;6295940;28;20041;-77
2022/03/28 13:06:04;;;;;;;20.20;9.27;;;;;;;10.23;100.00;101864.13;6296478;28;20064;-77
2022/03/28 13:09:05;;;;;;;26.92;10.80;;;;;;;10.27;100.00;101863.13;6295384;28;20127;-77
2022/03/28 13:12:08;;;;;;;22.77;9.88;;;;;;;9.89;100.00;101867.84;6294923;28;20048;-77
2022/03/28 13:15:20;;;;;;;27.13;9.77;;;;;;;9.85;100.00;101852.25;6296578;28;20522;-77
2022/03/28 13:18:23;;;;;;;23.15;11.13;;;;;;;10.06;100.00;101853.31;6296255;28;20722;-77
2022/03/28 13:21:29;;;;;;;27.10;9.95;;;;;;;10.41;100.00;101849.53;6295898;28;20518;-77
2022/03/28 13:24:31;;;;;;;28.35;9.77;;;;;;;10.54;100.00;101840.28;6296275;28;20419;-77
2022/03/28 13:30:55;;;;;;;26.70;10.18;;;;;;;11.21;100.00;101833.44;6278880;28;20044;-75
2022/03/28 13:33:59;;;;;;;20.48;8.82;;;;;;;10.98;98.67;101831.69;6284035;28;20067;-75
2022/03/28 13:37:06;;;;;;;24.80;9.48;;;;;;;11.01;100.00;101824.53;6282898;28;20056;-77
2022/03/28 13:40:08;;;;;;;22.98;10.73;;;;;;;11.32;98.21;101813.69;6285727;28;20060;-77
2022/03/28 13:43:10;;;;;;;21.38;9.85;;;;;;;10.93;100.00;101819.56;6295842;28;20056;-77
2022/03/28 13:46:14;;;;;;;20.00;9.32;;;;;;;10.76;100.00;101813.22;6296082;28;20075;-77
2022/03/28 13:49:17;;;;;;;18.15;9.15;;;;;;;10.94;100.00;101802.00;6283726;28;20045;-77
2022/03/28 13:52:18;;;;;;;20.63;9.27;;;;;;;11.08;100.00;101812.00;6270334;28;20045;-77
2022/03/28 13:55:19;;;;;;;23.90;9.15;;;;;;;11.31;100.00;101801.47;6271046;28;20404;-75
2022/03/28 13:58:20;;;;;;;19.10;9.07;;;;;;;11.50;99.60;101806.84;6271070;28;20056;-77
2022/03/28 14:01:27;;;;;;;21.85;9.70;;;;;;;11.63;98.08;101794.91;6270438;28;20049;-77
2022/03/28 14:04:30;;;;;;;19.92;9.73;;;;;;;11.77;96.76;101802.22;6271333;28;20049;-75
2022/03/28 14:07:31;;;;;;;21.35;9.45;;;;;;;11.76;97.38;101782.06;6270045;28;20504;-74
2022/03/28 14:10:33;;;;;;;19.30;9.10;;;;;;;11.48;96.60;101784.97;6271031;28;20041;-74